Attleboro, MA (02703)

3:11 PM EST on December 17, 2014 (GMT -0500)
Dodgeville | Change Station
CLOSE
Current Station
Personal Weather Station
Location: Attleboro, MA
Elevation: 70 ft
Nearby Weather Stations

Elev 70 ft 41.92 °N, 71.28 °W | Updated 12 minutes ago

Overcast
Overcast
48.1 °F
Feels Like 48 °F
N
0.0
Wind Variable Wind from NW
Gusts 5.0 mph

Today
High -- | Low -- °F
--% Chance of Precip.
Yesterday
High -- | Low -- °F
Precip. -- in
7:07 AM 4:15 PM
Waning Crescent, 20% visible
Pressure 29.70 in
Visibility 10.0 miles
Clouds Mostly Cloudy 2300 ft
Overcast 2800 ft
Windchill 48 °F
Dew Point 44 °F
Humidity 85%
Rainfall 0.30 in
Snow Depth Not available.
UV 0 out of 12
Pollen .10 out of 12
Air Quality Not available.
Flu Activity Not available.
METAR KSFZ 171955Z 30010KT 10SM BKN023 OVC028 08/02 A2970 RMK AO1

More Conditions Fewer Conditions

Pressure 29.70 in
Visibility 10.0 miles
Clouds Mostly Cloudy 2300 ft
Overcast 2800 ft
Windchill 48 °F
Dew Point 44 °F
Humidity 85%
Rainfall 0.30 in
Snow Depth Not available.
UV 0 out of 12
Pollen .10 out of 12
Air Quality Not available.
Flu Activity Not available.
METAR KSFZ 171955Z 30010KT 10SM BKN023 OVC028 08/02 A2970 RMK AO1

More Conditions Fewer Conditions

10-Day Weather Forecast

Almanac

Astronomy

Dec. 17, 2014 Rise Set
Actual Time
Civil Twilight
Nautical Twilight
Astronomical Twilight
Moon
Length of Visible Light
Length of Day
Tomorrow will be .
, % of the Moon is Illuminated

Today's Extremes

State Highs State Lows

Community

WunderPhotos

Upload Photos

1,778,802 photos uploaded!

WunderBlogs® & News

Nearby

Air Quality

  Air Quality AQ Index Pollutant
Not available.

Snow Depth

Station Depth Elevation

Earthquake Activity

City Distance Mag. Time & Date
Minimum magnitude displayed is 2.5.

Coastal Water Temperatures

Place Temperature

Nearby Weather Stations